createdAt,value
2023-01-05T00:00:51.000Z,98322
2023-01-05T00:02:17.000Z,98326
2023-01-05T00:04:30.000Z,98322
2023-01-05T00:05:57.000Z,98324
2023-01-05T00:08:03.000Z,98318
2023-01-05T00:09:29.000Z,98313
2023-01-05T00:11:35.000Z,98325
2023-01-05T00:13:02.000Z,98323
2023-01-05T00:15:08.000Z,98316
2023-01-05T00:16:34.000Z,98308
2023-01-05T00:18:41.000Z,98309
2023-01-05T00:21:31.000Z,98295
2023-01-05T00:22:58.000Z,98300
2023-01-05T00:25:04.000Z,98293
2023-01-05T00:26:38.000Z,98297
2023-01-05T00:28:44.000Z,98294
2023-01-05T00:30:10.000Z,98291
2023-01-05T00:32:17.000Z,98291
2023-01-05T00:33:43.000Z,98282
2023-01-05T00:35:49.000Z,98287
2023-01-05T00:37:16.000Z,98283
2023-01-05T00:39:22.000Z,98280
2023-01-05T00:40:48.000Z,98287
2023-01-05T00:42:54.000Z,98287
2023-01-05T00:44:21.000Z,98285
2023-01-05T00:46:27.000Z,98292
2023-01-05T00:47:54.000Z,98295
2023-01-05T00:50:00.000Z,98289
2023-01-05T00:51:26.000Z,98290
2023-01-05T00:53:33.000Z,98291
2023-01-05T00:54:59.000Z,98300
2023-01-05T00:57:05.000Z,98285
2023-01-05T00:59:56.000Z,98296
2023-01-05T01:01:23.000Z,98295
2023-01-05T01:03:29.000Z,98304
2023-01-05T01:04:56.000Z,98302
2023-01-05T01:07:02.000Z,98320
2023-01-05T01:08:28.000Z,98308
2023-01-05T01:10:34.000Z,98309
2023-01-05T01:12:01.000Z,98303
2023-01-05T01:14:07.000Z,98329
2023-01-05T01:15:34.000Z,98322
2023-01-05T01:17:40.000Z,98345
2023-01-05T01:19:06.000Z,98344
2023-01-05T01:21:12.000Z,98342
2023-01-05T01:22:39.000Z,98343
2023-01-05T01:24:45.000Z,98343
2023-01-05T01:26:11.000Z,98347
2023-01-05T01:28:18.000Z,98348
2023-01-05T01:29:44.000Z,98348
2023-01-05T01:31:50.000Z,98342
2023-01-05T01:33:17.000Z,98343
2023-01-05T01:35:23.000Z,98334
2023-01-05T01:38:14.000Z,98336
2023-01-05T01:39:40.000Z,98342
2023-01-05T01:41:47.000Z,98332
2023-01-05T01:43:13.000Z,98337
2023-01-05T01:45:19.000Z,98334
2023-01-05T01:46:46.000Z,98341
2023-01-05T01:48:52.000Z,98346
2023-01-05T01:50:18.000Z,98340
2023-01-05T01:52:25.000Z,98333
2023-01-05T01:53:51.000Z,98342
2023-01-05T01:55:57.000Z,98334
2023-01-05T01:57:24.000Z,98336
2023-01-05T01:59:30.000Z,98337
2023-01-05T02:00:57.000Z,98336
2023-01-05T02:03:03.000Z,98339
2023-01-05T02:04:29.000Z,98344
2023-01-05T02:06:35.000Z,98348
2023-01-05T02:08:02.000Z,98344
2023-01-05T02:10:08.000Z,98342
2023-01-05T02:11:35.000Z,98340
2023-01-05T02:13:41.000Z,98348
2023-01-05T02:16:32.000Z,98352
2023-01-05T02:17:59.000Z,98354
2023-01-05T02:20:05.000Z,98345
2023-01-05T02:21:31.000Z,98345
2023-01-05T02:23:38.000Z,98341
2023-01-05T02:25:04.000Z,98342
2023-01-05T02:27:10.000Z,98331
2023-01-05T02:28:37.000Z,98331
2023-01-05T02:30:43.000Z,98328
2023-01-05T02:32:09.000Z,98330
2023-01-05T02:34:15.000Z,98324
2023-01-05T02:35:42.000Z,98328
2023-01-05T02:37:48.000Z,98330
2023-01-05T02:39:15.000Z,98324
2023-01-05T02:41:21.000Z,98326
2023-01-05T02:42:47.000Z,98324
2023-01-05T02:44:53.000Z,98326
2023-01-05T02:46:20.000Z,98328
2023-01-05T02:48:26.000Z,98335
2023-01-05T02:49:53.000Z,98332
2023-01-05T02:51:59.000Z,98334
2023-01-05T02:54:50.000Z,98331
2023-01-05T02:56:16.000Z,98334
2023-01-05T02:58:23.000Z,98339
2023-01-05T02:59:49.000Z,98346
2023-01-05T03:01:55.000Z,98355
2023-01-05T03:03:22.000Z,98349
2023-01-05T03:05:28.000Z,98351
2023-01-05T03:06:55.000Z,98348
2023-01-05T03:09:01.000Z,98355
2023-01-05T03:10:27.000Z,98352
2023-01-05T03:12:33.000Z,98349
2023-01-05T03:14:00.000Z,98354
2023-01-05T03:16:06.000Z,98360
2023-01-05T03:17:33.000Z,98357
2023-01-05T03:19:39.000Z,98357
2023-01-05T03:21:06.000Z,98355
2023-01-05T03:23:12.000Z,98354
2023-01-05T03:24:38.000Z,98350
2023-01-05T03:26:45.000Z,98358
2023-01-05T03:28:11.000Z,98362
2023-01-05T03:30:17.000Z,98357
2023-01-05T03:33:09.000Z,98371
2023-01-05T03:34:35.000Z,98369
2023-01-05T03:36:41.000Z,98368
2023-01-05T03:38:08.000Z,98374
2023-01-05T03:40:19.000Z,98376
2023-01-05T03:41:45.000Z,98368
2023-01-05T03:43:51.000Z,98374
2023-01-05T03:45:18.000Z,98373
2023-01-05T03:47:24.000Z,98374
2023-01-05T03:48:51.000Z,98380
2023-01-05T03:50:57.000Z,98374
2023-01-05T03:52:23.000Z,98380
2023-01-05T03:54:29.000Z,98373
2023-01-05T03:55:56.000Z,98377
2023-01-05T03:58:02.000Z,98381
2023-01-05T03:59:29.000Z,98383
2023-01-05T04:01:35.000Z,98381
2023-01-05T04:03:01.000Z,98379
2023-01-05T04:05:08.000Z,98384
2023-01-05T04:06:34.000Z,98381
2023-01-05T04:08:40.000Z,98392
2023-01-05T04:11:32.000Z,98405
2023-01-05T04:12:58.000Z,98404
2023-01-05T04:15:04.000Z,98404
2023-01-05T04:16:31.000Z,98405
2023-01-05T04:18:37.000Z,98407
2023-01-05T04:20:04.000Z,98405
2023-01-05T04:22:10.000Z,98403
2023-01-05T04:23:37.000Z,98403
2023-01-05T04:25:43.000Z,98404
2023-01-05T04:27:09.000Z,98396
2023-01-05T04:29:15.000Z,98386
2023-01-05T04:30:42.000Z,98401
2023-01-05T04:32:48.000Z,98408
2023-01-05T04:34:15.000Z,98408
2023-01-05T04:36:21.000Z,98403
2023-01-05T04:37:47.000Z,98410
2023-01-05T04:39:54.000Z,98411
2023-01-05T04:41:20.000Z,98413
2023-01-05T04:43:26.000Z,98406
2023-01-05T04:44:53.000Z,98405
2023-01-05T04:46:59.000Z,98392
2023-01-05T04:49:50.000Z,98404
2023-01-05T04:51:16.000Z,98410
2023-01-05T04:53:22.000Z,98408
2023-01-05T04:54:49.000Z,98410
2023-01-05T04:56:55.000Z,98407
2023-01-05T04:58:22.000Z,98409
2023-01-05T05:00:28.000Z,98400
2023-01-05T05:01:54.000Z,98408
2023-01-05T05:04:01.000Z,98403
2023-01-05T05:05:27.000Z,98407
2023-01-05T05:07:33.000Z,98405
2023-01-05T05:09:00.000Z,98399
2023-01-05T05:11:06.000Z,98403
2023-01-05T05:12:33.000Z,98397
2023-01-05T05:14:39.000Z,98402
2023-01-05T05:16:05.000Z,98404
2023-01-05T05:18:12.000Z,98402
2023-01-05T05:19:38.000Z,98397
2023-01-05T05:21:44.000Z,98405
2023-01-05T05:23:11.000Z,98400
2023-01-05T05:25:17.000Z,98397
2023-01-05T05:28:08.000Z,98400
2023-01-05T05:29:35.000Z,98397
2023-01-05T05:31:41.000Z,98394
2023-01-05T05:33:08.000Z,98397
2023-01-05T05:35:14.000Z,98398
2023-01-05T05:36:40.000Z,98398
2023-01-05T05:38:46.000Z,98397
2023-01-05T05:40:13.000Z,98403
2023-01-05T05:42:19.000Z,98408
2023-01-05T05:43:46.000Z,98412
2023-01-05T05:45:52.000Z,98409
2023-01-05T05:47:18.000Z,98409
2023-01-05T05:49:24.000Z,98406
2023-01-05T05:50:51.000Z,98412
2023-01-05T05:52:57.000Z,98416
2023-01-05T05:54:24.000Z,98421
2023-01-05T05:56:30.000Z,98425
2023-01-05T05:57:56.000Z,98424
2023-01-05T06:00:03.000Z,98415
2023-01-05T06:01:29.000Z,98418
2023-01-05T06:03:36.000Z,98429
2023-01-05T06:06:27.000Z,98438
2023-01-05T06:07:53.000Z,98444
2023-01-05T06:09:59.000Z,98460
2023-01-05T06:11:26.000Z,98451
2023-01-05T06:13:32.000Z,98455
2023-01-05T06:14:59.000Z,98457
2023-01-05T06:17:05.000Z,98468
2023-01-05T06:18:32.000Z,98466
2023-01-05T06:20:38.000Z,98465
2023-01-05T06:22:04.000Z,98465
2023-01-05T06:24:10.000Z,98471
2023-01-05T06:25:37.000Z,98465
2023-01-05T06:27:43.000Z,98465
2023-01-05T06:29:09.000Z,98474
2023-01-05T06:31:16.000Z,98471
2023-01-05T06:32:42.000Z,98473
2023-01-05T06:34:48.000Z,98470
2023-01-05T06:36:15.000Z,98473
2023-01-05T06:38:21.000Z,98478
2023-01-05T06:39:47.000Z,98484
2023-01-05T06:41:54.000Z,98487
2023-01-05T06:44:45.000Z,98484
2023-01-05T06:46:12.000Z,98482
2023-01-05T06:48:18.000Z,98481
2023-01-05T06:49:45.000Z,98485
2023-01-05T06:51:51.000Z,98481
2023-01-05T06:53:17.000Z,98475
2023-01-05T06:55:23.000Z,98482
2023-01-05T06:56:50.000Z,98482
2023-01-05T06:58:56.000Z,98481
2023-01-05T07:00:23.000Z,98481
2023-01-05T07:02:29.000Z,98484
2023-01-05T07:03:55.000Z,98488
2023-01-05T07:06:02.000Z,98490
2023-01-05T07:07:28.000Z,98490
2023-01-05T07:09:35.000Z,98491
2023-01-05T07:11:01.000Z,98493
2023-01-05T07:13:07.000Z,98500
2023-01-05T07:14:34.000Z,98495
2023-01-05T07:16:40.000Z,98498
2023-01-05T07:18:07.000Z,98505
2023-01-05T07:20:13.000Z,98508
2023-01-05T07:23:04.000Z,98500
2023-01-05T07:24:31.000Z,98513
2023-01-05T07:26:37.000Z,98523
2023-01-05T07:28:03.000Z,98522
2023-01-05T07:30:10.000Z,98522
2023-01-05T07:31:36.000Z,98536
2023-01-05T07:33:42.000Z,98535
2023-01-05T07:35:09.000Z,98536
2023-01-05T07:37:15.000Z,98543
2023-01-05T07:38:41.000Z,98548
2023-01-05T07:40:48.000Z,98550
2023-01-05T07:42:14.000Z,98547
2023-01-05T07:44:20.000Z,98557
2023-01-05T07:45:47.000Z,98556
2023-01-05T07:47:53.000Z,98565
2023-01-05T07:49:20.000Z,98572
2023-01-05T07:51:26.000Z,98566
2023-01-05T07:52:52.000Z,98567
2023-01-05T07:54:58.000Z,98569
2023-01-05T07:56:25.000Z,98577
2023-01-05T07:58:31.000Z,98580
2023-01-05T08:01:22.000Z,98588
2023-01-05T08:02:49.000Z,98588
2023-01-05T08:04:55.000Z,98588
2023-01-05T08:06:22.000Z,98588
2023-01-05T08:08:28.000Z,98585
2023-01-05T08:09:54.000Z,98585
2023-01-05T08:12:01.000Z,98581
2023-01-05T08:13:27.000Z,98585
2023-01-05T08:15:33.000Z,98591
2023-01-05T08:17:00.000Z,98591
2023-01-05T08:19:06.000Z,98599
2023-01-05T08:20:37.000Z,98591
2023-01-05T08:22:43.000Z,98596
2023-01-05T08:24:10.000Z,98602
2023-01-05T08:26:16.000Z,98606
2023-01-05T08:27:43.000Z,98603
2023-01-05T08:29:49.000Z,98612
2023-01-05T08:31:15.000Z,98606
2023-01-05T08:33:22.000Z,98607
2023-01-05T08:34:48.000Z,98605
2023-01-05T08:37:01.000Z,98615
2023-01-05T08:39:52.000Z,98615
2023-01-05T08:41:19.000Z,98616
2023-01-05T08:43:25.000Z,98617
2023-01-05T08:44:51.000Z,98615
2023-01-05T08:46:58.000Z,98620
2023-01-05T08:48:24.000Z,98617
2023-01-05T08:50:30.000Z,98620
2023-01-05T08:51:57.000Z,98625
2023-01-05T08:54:03.000Z,98630
2023-01-05T08:55:30.000Z,98633
2023-01-05T08:57:36.000Z,98637
2023-01-05T08:59:02.000Z,98639
2023-01-05T09:01:08.000Z,98637
2023-01-05T09:02:35.000Z,98643
2023-01-05T09:04:42.000Z,98639
2023-01-05T09:06:08.000Z,98639
2023-01-05T09:08:14.000Z,98637
2023-01-05T09:09:41.000Z,98635
2023-01-05T09:11:47.000Z,98636
2023-01-05T09:13:14.000Z,98645
2023-01-05T09:15:20.000Z,98639
2023-01-05T09:18:11.000Z,98650
2023-01-05T09:19:37.000Z,98642
2023-01-05T09:21:43.000Z,98659
2023-01-05T09:23:10.000Z,98656
2023-01-05T09:25:16.000Z,98659
2023-01-05T09:26:43.000Z,98661
2023-01-05T09:28:49.000Z,98667
2023-01-05T09:30:15.000Z,98663
2023-01-05T09:32:21.000Z,98667
2023-01-05T09:33:48.000Z,98663
2023-01-05T09:35:54.000Z,98668
2023-01-05T09:37:21.000Z,98676
2023-01-05T09:39:27.000Z,98674
2023-01-05T09:40:54.000Z,98669
2023-01-05T09:43:00.000Z,98672
2023-01-05T09:44:26.000Z,98671
2023-01-05T09:46:32.000Z,98683
2023-01-05T09:47:59.000Z,98680
2023-01-05T09:50:05.000Z,98677
2023-01-05T09:51:32.000Z,98679
2023-01-05T09:53:38.000Z,98680
2023-01-05T09:56:29.000Z,98674
2023-01-05T09:58:35.000Z,98676
2023-01-05T10:00:41.000Z,98680
2023-01-05T10:02:07.000Z,98680
2023-01-05T10:04:13.000Z,98684
2023-01-05T10:05:40.000Z,98685
2023-01-05T10:07:47.000Z,98687
2023-01-05T10:09:13.000Z,98694
2023-01-05T10:11:19.000Z,98686
2023-01-05T10:12:46.000Z,98691
2023-01-05T10:14:52.000Z,98686
2023-01-05T10:16:18.000Z,98691
2023-01-05T10:18:25.000Z,98688
2023-01-05T10:19:51.000Z,98692
2023-01-05T10:21:57.000Z,98685
2023-01-05T10:23:24.000Z,98691
2023-01-05T10:25:30.000Z,98691
2023-01-05T10:26:56.000Z,98689
2023-01-05T10:31:03.000Z,98707
2023-01-05T10:31:37.000Z,98707
2023-01-05T10:33:04.000Z,98710
2023-01-05T10:35:32.000Z,98712
2023-01-05T10:38:45.000Z,98713
2023-01-05T10:40:12.000Z,98715
2023-01-05T10:42:18.000Z,98713
2023-01-05T10:43:45.000Z,98713
2023-01-05T10:45:51.000Z,98704
2023-01-05T10:47:58.000Z,98703
2023-01-05T10:50:04.000Z,98704
2023-01-05T10:51:31.000Z,98700
2023-01-05T10:53:37.000Z,98700
2023-01-05T10:55:04.000Z,98699
2023-01-05T10:57:10.000Z,98705
2023-01-05T10:58:36.000Z,98705
2023-01-05T11:00:42.000Z,98711
2023-01-05T11:02:09.000Z,98711
2023-01-05T11:04:15.000Z,98718
2023-01-05T11:06:01.000Z,98726
2023-01-05T11:08:08.000Z,98726
2023-01-05T11:09:34.000Z,98720
2023-01-05T11:11:40.000Z,98723
2023-01-05T11:13:07.000Z,98733
2023-01-05T11:15:13.000Z,98721
2023-01-05T11:18:04.000Z,98729
2023-01-05T11:19:31.000Z,98736
2023-01-05T11:21:37.000Z,98738
2023-01-05T11:23:04.000Z,98733
2023-01-05T11:25:10.000Z,98738
2023-01-05T11:26:36.000Z,98739
2023-01-05T11:28:42.000Z,98741
2023-01-05T11:30:09.000Z,98748
2023-01-05T11:32:15.000Z,98754
2023-01-05T11:33:42.000Z,98756
2023-01-05T11:35:48.000Z,98749
2023-01-05T11:37:14.000Z,98754
2023-01-05T11:39:20.000Z,98754
2023-01-05T11:40:47.000Z,98750
2023-01-05T11:42:53.000Z,98747
2023-01-05T11:44:19.000Z,98748
2023-01-05T11:46:26.000Z,98743
2023-01-05T11:47:52.000Z,98741
2023-01-05T11:49:58.000Z,98742
2023-01-05T11:51:25.000Z,98752
2023-01-05T11:53:33.000Z,98748
2023-01-05T11:56:24.000Z,98747
2023-01-05T11:57:51.000Z,98752
2023-01-05T12:00:05.000Z,98755
2023-01-05T12:01:32.000Z,98755
2023-01-05T12:03:38.000Z,98757
2023-01-05T12:05:05.000Z,98754
2023-01-05T12:07:11.000Z,98755
2023-01-05T12:08:37.000Z,98756
2023-01-05T12:10:43.000Z,98760
2023-01-05T12:12:10.000Z,98762
2023-01-05T12:14:16.000Z,98756
2023-01-05T12:15:43.000Z,98755
2023-01-05T12:17:49.000Z,98753
2023-01-05T12:19:15.000Z,98759
2023-01-05T12:21:21.000Z,98754
2023-01-05T12:22:48.000Z,98754
2023-01-05T12:24:54.000Z,98762
2023-01-05T12:26:21.000Z,98752
2023-01-05T12:28:27.000Z,98752
2023-01-05T12:36:05.000Z,98750
2023-01-05T12:37:31.000Z,98744
2023-01-05T12:39:37.000Z,98748
2023-01-05T12:41:04.000Z,98745
2023-01-05T12:43:10.000Z,98747
2023-01-05T12:44:37.000Z,98744
2023-01-05T12:46:43.000Z,98746
2023-01-05T12:48:09.000Z,98746
2023-01-05T12:50:15.000Z,98745
2023-01-05T12:51:42.000Z,98757
2023-01-05T12:53:48.000Z,98750
2023-01-05T12:55:15.000Z,98749
2023-01-05T12:57:21.000Z,98752
2023-01-05T12:58:47.000Z,98758
2023-01-05T13:01:00.000Z,98758
2023-01-05T13:02:26.000Z,98762
2023-01-05T13:04:32.000Z,98767
2023-01-05T13:06:07.000Z,98772
2023-01-05T13:08:13.000Z,98769
2023-01-05T13:09:40.000Z,98769
2023-01-05T13:11:46.000Z,98770
2023-01-05T13:14:38.000Z,98771
2023-01-05T13:16:04.000Z,98771
2023-01-05T13:18:10.000Z,98765
2023-01-05T13:19:37.000Z,98768
2023-01-05T13:21:43.000Z,98771
2023-01-05T13:23:10.000Z,98769
2023-01-05T13:25:16.000Z,98773
2023-01-05T13:26:42.000Z,98774
2023-01-05T13:28:49.000Z,98774
2023-01-05T13:30:15.000Z,98776
2023-01-05T13:32:21.000Z,98773
2023-01-05T13:33:48.000Z,98776
2023-01-05T13:35:54.000Z,98782
2023-01-05T13:37:20.000Z,98781
2023-01-05T13:39:26.000Z,98784
2023-01-05T13:40:53.000Z,98791
2023-01-05T13:42:59.000Z,98795
2023-01-05T13:44:25.000Z,98795
2023-01-05T13:46:32.000Z,98795
2023-01-05T13:47:58.000Z,98800
2023-01-05T13:50:06.000Z,98799
2023-01-05T13:52:57.000Z,98796
2023-01-05T13:54:24.000Z,98801
2023-01-05T13:56:30.000Z,98813
2023-01-05T13:57:57.000Z,98807
2023-01-05T14:00:03.000Z,98811
2023-01-05T14:01:35.000Z,98813
2023-01-05T14:03:42.000Z,98813
2023-01-05T14:05:08.000Z,98815
2023-01-05T14:07:15.000Z,98811
2023-01-05T14:08:41.000Z,98815
2023-01-05T14:10:47.000Z,98815
2023-01-05T14:12:14.000Z,98814
2023-01-05T14:14:20.000Z,98818
2023-01-05T14:15:47.000Z,98816
2023-01-05T14:17:53.000Z,98814
2023-01-05T14:19:19.000Z,98818
2023-01-05T14:21:26.000Z,98825
2023-01-05T14:22:52.000Z,98822
2023-01-05T14:24:58.000Z,98822
2023-01-05T14:26:25.000Z,98821
2023-01-05T14:28:31.000Z,98819
2023-01-05T14:31:22.000Z,98823
2023-01-05T14:32:49.000Z,98816
2023-01-05T14:36:21.000Z,98831
2023-01-05T14:38:27.000Z,98833
2023-01-05T14:39:54.000Z,98831
2023-01-05T14:42:10.000Z,98836
2023-01-05T14:43:36.000Z,98834
2023-01-05T14:45:42.000Z,98839
2023-01-05T14:47:09.000Z,98842
2023-01-05T14:49:15.000Z,98844
2023-01-05T14:50:41.000Z,98845
2023-01-05T14:52:47.000Z,98847
2023-01-05T14:54:14.000Z,98850
2023-01-05T14:56:20.000Z,98843
2023-01-05T14:57:47.000Z,98850
2023-01-05T14:59:53.000Z,98852
2023-01-05T15:01:19.000Z,98855
2023-01-05T15:03:25.000Z,98858
2023-01-05T15:04:52.000Z,98863
2023-01-05T15:06:58.000Z,98867
2023-01-05T15:09:49.000Z,98863
2023-01-05T15:11:16.000Z,98863
2023-01-05T15:13:22.000Z,98864
2023-01-05T15:14:49.000Z,98862
2023-01-05T15:16:55.000Z,98865
2023-01-05T15:18:21.000Z,98865
2023-01-05T15:20:27.000Z,98870
2023-01-05T15:21:54.000Z,98870
2023-01-05T15:24:00.000Z,98869
2023-01-05T15:25:26.000Z,98872
2023-01-05T15:27:33.000Z,98872
2023-01-05T15:31:05.000Z,98875
2023-01-05T15:32:32.000Z,98873
2023-01-05T15:34:38.000Z,98879
2023-01-05T15:36:05.000Z,98881
2023-01-05T15:38:11.000Z,98882
2023-01-05T15:39:37.000Z,98882
2023-01-05T15:41:44.000Z,98883
2023-01-05T15:43:10.000Z,98885
2023-01-05T15:45:16.000Z,98886
2023-01-05T15:48:07.000Z,98887
2023-01-05T15:49:35.000Z,98884
2023-01-05T15:51:41.000Z,98882
2023-01-05T15:53:09.000Z,98885
2023-01-05T15:55:15.000Z,98883
2023-01-05T15:56:41.000Z,98884
2023-01-05T15:58:47.000Z,98883
2023-01-05T16:00:14.000Z,98886
2023-01-05T16:02:20.000Z,98885
2023-01-05T16:03:47.000Z,98887
2023-01-05T16:05:53.000Z,98891
2023-01-05T16:07:19.000Z,98893
2023-01-05T16:09:25.000Z,98894
2023-01-05T16:10:52.000Z,98890
2023-01-05T16:12:58.000Z,98890
2023-01-05T16:14:25.000Z,98899
2023-01-05T16:16:31.000Z,98898
2023-01-05T16:18:18.000Z,98901
2023-01-05T16:20:24.000Z,98900
2023-01-05T16:21:51.000Z,98900
2023-01-05T16:23:57.000Z,98899
2023-01-05T16:26:48.000Z,98901
2023-01-05T16:28:14.000Z,98902
2023-01-05T16:30:21.000Z,98904
2023-01-05T16:31:47.000Z,98906
2023-01-05T16:33:53.000Z,98911
2023-01-05T16:35:20.000Z,98912
2023-01-05T16:37:26.000Z,98909
2023-01-05T16:38:52.000Z,98907
2023-01-05T16:40:59.000Z,98907
2023-01-05T16:42:25.000Z,98908
2023-01-05T16:44:31.000Z,98906
2023-01-05T16:45:58.000Z,98904
2023-01-05T16:48:04.000Z,98908
2023-01-05T16:49:31.000Z,98906
2023-01-05T16:51:37.000Z,98903
2023-01-05T16:53:03.000Z,98904
2023-01-05T16:55:09.000Z,98904
2023-01-05T16:56:38.000Z,98905
2023-01-05T16:58:44.000Z,98910
2023-01-05T17:00:11.000Z,98907
2023-01-05T17:02:17.000Z,98909
2023-01-05T17:05:08.000Z,98911
2023-01-05T17:06:34.000Z,98913
2023-01-05T17:08:40.000Z,98919
2023-01-05T17:10:07.000Z,98921
2023-01-05T17:12:13.000Z,98920
2023-01-05T17:13:39.000Z,98915
2023-01-05T17:15:45.000Z,98915
2023-01-05T17:17:12.000Z,98918
2023-01-05T17:19:18.000Z,98922
2023-01-05T17:20:45.000Z,98922
2023-01-05T17:22:51.000Z,98920
2023-01-05T17:24:17.000Z,98921
2023-01-05T17:26:23.000Z,98919
2023-01-05T17:27:50.000Z,98919
2023-01-05T17:31:23.000Z,98920
2023-01-05T17:33:29.000Z,98920
2023-01-05T17:34:55.000Z,98924
2023-01-05T17:37:02.000Z,98926
2023-01-05T17:38:28.000Z,98928
2023-01-05T17:40:34.000Z,98926
2023-01-05T17:43:25.000Z,98925
2023-01-05T17:44:52.000Z,98928
2023-01-05T17:46:58.000Z,98923
2023-01-05T17:48:25.000Z,98927
2023-01-05T17:51:58.000Z,98921
2023-01-05T17:54:04.000Z,98918
2023-01-05T17:55:31.000Z,98921
2023-01-05T17:57:37.000Z,98925
2023-01-05T17:59:03.000Z,98926
2023-01-05T18:01:10.000Z,98927
2023-01-05T18:02:36.000Z,98932
2023-01-05T18:04:43.000Z,98925
2023-01-05T18:06:09.000Z,98927
2023-01-05T18:08:15.000Z,98929
2023-01-05T18:09:42.000Z,98931
2023-01-05T18:11:48.000Z,98933
2023-01-05T18:13:17.000Z,98926
2023-01-05T18:15:28.000Z,98922
2023-01-05T18:16:55.000Z,98919
2023-01-05T18:19:01.000Z,98924
2023-01-05T18:21:52.000Z,98922
2023-01-05T18:23:18.000Z,98923
2023-01-05T18:25:25.000Z,98923
2023-01-05T18:26:51.000Z,98917
2023-01-05T18:29:01.000Z,98916
2023-01-05T18:30:28.000Z,98916
2023-01-05T18:32:34.000Z,98918
2023-01-05T18:34:00.000Z,98916
2023-01-05T18:37:33.000Z,98912
2023-01-05T18:39:39.000Z,98909
2023-01-05T18:41:06.000Z,98909
2023-01-05T18:43:12.000Z,98911
2023-01-05T18:44:38.000Z,98907
2023-01-05T18:46:44.000Z,98907
2023-01-05T18:48:11.000Z,98910
2023-01-05T18:50:17.000Z,98912
2023-01-05T18:51:44.000Z,98917
2023-01-05T18:53:50.000Z,98909
2023-01-05T18:55:16.000Z,98908
2023-01-05T18:57:23.000Z,98904
2023-01-05T19:00:14.000Z,98917
2023-01-05T19:01:40.000Z,98917
2023-01-05T19:03:47.000Z,98919
2023-01-05T19:05:13.000Z,98920
2023-01-05T19:07:19.000Z,98917
2023-01-05T19:08:46.000Z,98917
2023-01-05T19:10:52.000Z,98922
2023-01-05T19:12:19.000Z,98920
2023-01-05T19:14:25.000Z,98926
2023-01-05T19:15:51.000Z,98928
2023-01-05T19:17:57.000Z,98929
2023-01-05T19:19:24.000Z,98924
2023-01-05T19:21:30.000Z,98925
2023-01-05T19:22:57.000Z,98919
2023-01-05T19:25:03.000Z,98917
2023-01-05T19:26:29.000Z,98921
2023-01-05T19:28:35.000Z,98921
2023-01-05T19:30:02.000Z,98921
2023-01-05T19:32:08.000Z,98927
2023-01-05T19:33:35.000Z,98924
2023-01-05T19:35:41.000Z,98925
2023-01-05T19:38:32.000Z,98926
2023-01-05T19:39:59.000Z,98921
2023-01-05T19:42:05.000Z,98923
2023-01-05T19:43:31.000Z,98926
2023-01-05T19:45:37.000Z,98922
2023-01-05T19:47:04.000Z,98922
2023-01-05T19:49:10.000Z,98919
2023-01-05T19:50:36.000Z,98917
2023-01-05T19:52:42.000Z,98917
2023-01-05T19:54:09.000Z,98915
2023-01-05T19:56:15.000Z,98913
2023-01-05T19:57:42.000Z,98921
2023-01-05T19:59:48.000Z,98927
2023-01-05T20:01:17.000Z,98927
2023-01-05T20:03:23.000Z,98925
2023-01-05T20:04:50.000Z,98925
2023-01-05T20:06:56.000Z,98923
2023-01-05T20:08:23.000Z,98920
2023-01-05T20:10:29.000Z,98916
2023-01-05T20:11:55.000Z,98916
2023-01-05T20:14:19.000Z,98913
2023-01-05T20:17:10.000Z,98916
2023-01-05T20:18:36.000Z,98921
2023-01-05T20:20:42.000Z,98918
2023-01-05T20:22:09.000Z,98922
2023-01-05T20:24:15.000Z,98918
2023-01-05T20:25:42.000Z,98920
2023-01-05T20:27:48.000Z,98919
2023-01-05T20:29:14.000Z,98914
2023-01-05T20:31:20.000Z,98919
2023-01-05T20:32:47.000Z,98922
2023-01-05T20:34:53.000Z,98918
2023-01-05T20:36:20.000Z,98916
2023-01-05T20:38:26.000Z,98914
2023-01-05T20:39:52.000Z,98913
2023-01-05T20:41:58.000Z,98911
2023-01-05T20:43:25.000Z,98910
2023-01-05T20:45:31.000Z,98898
2023-01-05T20:46:57.000Z,98898
2023-01-05T20:49:04.000Z,98893
2023-01-05T20:50:30.000Z,98894
2023-01-05T20:52:36.000Z,98900
2023-01-05T20:55:27.000Z,98896
2023-01-05T20:56:54.000Z,98898
2023-01-05T20:59:00.000Z,98900
2023-01-05T21:00:27.000Z,98895
2023-01-05T21:02:33.000Z,98899
2023-01-05T21:03:59.000Z,98900
2023-01-05T21:06:06.000Z,98899
2023-01-05T21:07:32.000Z,98897
2023-01-05T21:09:38.000Z,98897
2023-01-05T21:11:05.000Z,98903
2023-01-05T21:13:11.000Z,98899
2023-01-05T21:14:59.000Z,98903
2023-01-05T21:17:05.000Z,98903
2023-01-05T21:18:31.000Z,98902
2023-01-05T21:20:37.000Z,98899
2023-01-05T21:22:04.000Z,98896
2023-01-05T21:24:10.000Z,98899
2023-01-05T21:25:37.000Z,98902
2023-01-05T21:28:14.000Z,98897
2023-01-05T21:29:40.000Z,98902
2023-01-05T21:31:46.000Z,98908
2023-01-05T21:34:38.000Z,98912
2023-01-05T21:36:04.000Z,98916
2023-01-05T21:38:10.000Z,98917
2023-01-05T21:39:37.000Z,98916
2023-01-05T21:41:43.000Z,98913
2023-01-05T21:43:09.000Z,98912
2023-01-05T21:45:15.000Z,98907
2023-01-05T21:46:42.000Z,98905
2023-01-05T21:48:48.000Z,98906
2023-01-05T21:50:15.000Z,98904
2023-01-05T21:52:21.000Z,98898
2023-01-05T21:53:47.000Z,98892
2023-01-05T21:55:53.000Z,98888
2023-01-05T21:57:20.000Z,98895
2023-01-05T21:59:26.000Z,98892
2023-01-05T22:00:53.000Z,98887
2023-01-05T22:02:59.000Z,98881
2023-01-05T22:04:26.000Z,98884
2023-01-05T22:06:32.000Z,98878
2023-01-05T22:07:58.000Z,98881
2023-01-05T22:10:04.000Z,98878
2023-01-05T22:12:56.000Z,98879
2023-01-05T22:14:22.000Z,98875
2023-01-05T22:16:28.000Z,98872
2023-01-05T22:17:55.000Z,98874
2023-01-05T22:20:01.000Z,98869
2023-01-05T22:21:28.000Z,98871
2023-01-05T22:23:34.000Z,98873
2023-01-05T22:25:00.000Z,98870
2023-01-05T22:27:06.000Z,98868
2023-01-05T22:28:33.000Z,98864
2023-01-05T22:30:39.000Z,98865
2023-01-05T22:32:05.000Z,98865
2023-01-05T22:34:12.000Z,98863
2023-01-05T22:35:38.000Z,98864
2023-01-05T22:37:44.000Z,98867
2023-01-05T22:39:11.000Z,98866
2023-01-05T22:41:17.000Z,98866
2023-01-05T22:42:44.000Z,98866
2023-01-05T22:44:50.000Z,98863
2023-01-05T22:46:16.000Z,98858
2023-01-05T22:48:22.000Z,98853
2023-01-05T22:51:13.000Z,98854
2023-01-05T22:52:40.000Z,98858
2023-01-05T22:54:46.000Z,98860
2023-01-05T22:56:13.000Z,98859
2023-01-05T22:58:19.000Z,98856
2023-01-05T22:59:45.000Z,98863
2023-01-05T23:01:51.000Z,98855
2023-01-05T23:03:18.000Z,98854
2023-01-05T23:05:24.000Z,98855
2023-01-05T23:06:51.000Z,98852
2023-01-05T23:08:57.000Z,98848
2023-01-05T23:10:23.000Z,98848
2023-01-05T23:12:29.000Z,98847
2023-01-05T23:13:56.000Z,98847
2023-01-05T23:16:02.000Z,98845
2023-01-05T23:17:29.000Z,98845
2023-01-05T23:19:35.000Z,98842
2023-01-05T23:21:01.000Z,98837
2023-01-05T23:23:08.000Z,98840
2023-01-05T23:24:35.000Z,98844
2023-01-05T23:26:41.000Z,98840
2023-01-05T23:29:32.000Z,98837
2023-01-05T23:30:59.000Z,98836
2023-01-05T23:33:05.000Z,98831
2023-01-05T23:34:32.000Z,98825
2023-01-05T23:36:38.000Z,98827
2023-01-05T23:38:05.000Z,98824
2023-01-05T23:40:11.000Z,98826
2023-01-05T23:41:37.000Z,98819
2023-01-05T23:43:43.000Z,98818
2023-01-05T23:45:10.000Z,98814
2023-01-05T23:47:16.000Z,98812
2023-01-05T23:48:43.000Z,98813